Time;durP1;ratioP1;P1;durP2;ratioP2;P2;SDS_P1;SDS_P2;PMS_P1;PMS_P2;Temp;Humidity;BMP_temperature;BMP_pressure;BME280_temperature;BME280_humidity;BME280_pressure;Samples;Min_cycle;Max_cycle;Signal;HPM_P1;HPM_P2
2023/03/08 00:00:29;;;;;;;21.63;19.93;;;1.40;99.90;;;;;;5095914;28;20457;-70
2023/03/08 00:02:56;;;;;;;21.27;19.60;;;1.40;99.90;;;;;;5094780;28;20457;-70
2023/03/08 00:05:23;;;;;;;34.70;23.80;;;1.40;99.90;;;;;;5096310;28;20990;-69
2023/03/08 00:07:54;;;;;;;20.00;18.80;;;1.50;99.90;;;;;;5092480;28;20469;-70
2023/03/08 00:10:22;;;;;;;19.63;17.90;;;1.50;99.90;;;;;;5088418;28;20559;-69
2023/03/08 00:12:49;;;;;;;19.40;18.10;;;1.50;99.90;;;;;;5092056;28;20462;-69
2023/03/08 00:15:16;;;;;;;19.20;18.10;;;1.50;99.90;;;;;;5101371;28;20461;-69
2023/03/08 00:17:43;;;;;;;20.63;19.23;;;1.50;99.90;;;;;;5092807;28;20466;-69
2023/03/08 00:20:12;;;;;;;20.10;18.33;;;1.50;99.90;;;;;;5092875;28;20483;-69
2023/03/08 00:22:40;;;;;;;20.33;18.77;;;1.50;99.90;;;;;;5092347;28;20975;-70
2023/03/08 00:25:10;;;;;;;18.37;17.23;;;1.40;99.90;;;;;;5092233;28;20823;-70
2023/03/08 00:27:37;;;;;;;21.07;19.13;;;1.40;99.90;;;;;;5088781;28;20542;-70
2023/03/08 00:30:05;;;;;;;19.30;18.07;;;1.50;99.90;;;;;;5099408;28;21007;-70
2023/03/08 00:32:32;;;;;;;17.90;16.60;;;1.40;99.90;;;;;;5098409;28;20545;-69
2023/03/08 00:34:59;;;;;;;19.27;17.97;;;1.40;99.90;;;;;;5090521;28;20847;-69
2023/03/08 00:37:27;;;;;;;19.67;17.97;;;1.40;99.90;;;;;;5096774;28;20530;-70
2023/03/08 00:39:55;;;;;;;21.03;19.37;;;1.40;99.90;;;;;;5091558;28;20450;-70
2023/03/08 00:42:24;;;;;;;20.77;19.27;;;1.40;99.90;;;;;;5095949;28;21025;-70
2023/03/08 00:44:51;;;;;;;24.17;21.87;;;1.40;99.90;;;;;;5098511;28;20671;-69
2023/03/08 00:47:18;;;;;;;23.87;21.70;;;1.40;99.90;;;;;;5098489;28;20522;-70
2023/03/08 00:49:45;;;;;;;24.13;22.33;;;1.40;99.90;;;;;;5097431;28;20484;-69
2023/03/08 00:52:12;;;;;;;24.30;22.30;;;1.30;99.90;;;;;;5088071;28;20473;-69
2023/03/08 00:54:40;;;;;;;25.60;23.40;;;1.40;99.90;;;;;;5092926;28;20508;-70
2023/03/08 00:57:07;;;;;;;24.83;22.73;;;1.40;99.90;;;;;;5097329;28;20464;-70
2023/03/08 00:59:35;;;;;;;24.23;22.30;;;1.40;99.90;;;;;;5100567;28;21312;-69
2023/03/08 01:02:02;;;;;;;25.10;22.70;;;1.40;99.90;;;;;;5092003;28;20546;-70
2023/03/08 01:04:29;;;;;;;25.17;23.20;;;1.40;99.90;;;;;;5094039;28;20454;-70
2023/03/08 01:06:56;;;;;;;22.77;21.20;;;1.40;99.90;;;;;;5090550;28;20461;-69
2023/03/08 01:09:23;;;;;;;23.30;21.40;;;1.40;99.90;;;;;;5102298;28;20482;-69
2023/03/08 01:11:49;;;;;;;22.77;20.97;;;1.40;99.90;;;;;;5093634;28;20498;-70
2023/03/08 01:14:16;;;;;;;21.90;20.60;;;1.40;99.90;;;;;;5093877;28;20464;-69
2023/03/08 01:16:45;;;;;;;23.90;21.77;;;1.40;99.90;;;;;;5094097;28;21008;-70
2023/03/08 01:19:12;;;;;;;23.10;21.70;;;1.40;99.90;;;;;;5099835;28;20486;-69
2023/03/08 01:21:39;;;;;;;24.10;22.37;;;1.40;99.90;;;;;;5088045;28;20462;-70
2023/03/08 01:24:06;;;;;;;24.00;22.23;;;1.50;99.90;;;;;;5094066;28;20529;-69
2023/03/08 01:26:33;;;;;;;23.00;21.40;;;1.50;99.90;;;;;;5093164;28;20457;-69
2023/03/08 01:29:00;;;;;;;24.93;22.47;;;1.50;99.90;;;;;;5090562;28;20983;-70
2023/03/08 01:31:29;;;;;;;22.20;20.70;;;1.50;99.90;;;;;;5090738;28;20512;-70
2023/03/08 01:33:58;;;;;;;23.63;22.13;;;1.50;99.90;;;;;;5097635;28;20534;-70
2023/03/08 01:36:26;;;;;;;22.40;21.10;;;1.50;99.90;;;;;;5096695;28;20876;-69
2023/03/08 01:38:53;;;;;;;22.87;21.40;;;1.40;99.90;;;;;;5089501;28;20464;-70
2023/03/08 01:41:23;;;;;;;22.87;21.47;;;1.40;99.90;;;;;;5092002;28;20572;-70
2023/03/08 01:43:50;;;;;;;24.27;22.77;;;1.40;99.90;;;;;;5090322;28;20683;-69
2023/03/08 01:46:25;;;;;;;22.73;21.10;;;1.40;99.90;;;;;;5097344;28;20488;-70
2023/03/08 01:48:55;;;;;;;23.63;22.00;;;1.40;99.90;;;;;;5089881;28;20465;-70
2023/03/08 01:51:29;;;;;;;23.20;21.70;;;1.30;99.90;;;;;;5095762;28;20460;-70
2023/03/08 01:53:59;;;;;;;23.40;21.90;;;1.30;99.90;;;;;;5095888;28;20491;-70
2023/03/08 01:56:26;;;;;;;23.27;21.77;;;1.30;99.90;;;;;;5091805;28;21126;-70
2023/03/08 01:58:54;;;;;;;23.60;22.00;;;1.30;99.90;;;;;;5091217;28;20905;-70
2023/03/08 02:01:21;;;;;;;24.20;22.27;;;1.30;99.90;;;;;;5090975;28;20464;-70
2023/03/08 02:03:48;;;;;;;23.10;21.70;;;1.30;99.90;;;;;;5093862;28;20514;-71
2023/03/08 02:06:18;;;;;;;24.73;22.90;;;1.40;99.90;;;;;;5096222;28;20460;-69
2023/03/08 02:08:46;;;;;;;24.83;23.10;;;1.40;99.90;;;;;;5102012;28;20504;-70
2023/03/08 02:11:15;;;;;;;23.70;22.07;;;1.30;99.90;;;;;;5092157;28;20498;-70
2023/03/08 02:13:42;;;;;;;24.40;22.37;;;1.30;99.90;;;;;;5091693;28;20531;-70
2023/03/08 02:16:12;;;;;;;25.20;23.30;;;1.30;99.90;;;;;;5093733;28;20462;-70
2023/03/08 02:18:53;;;;;;;25.40;23.13;;;1.30;99.90;;;;;;5090288;28;20482;-70
2023/03/08 02:21:20;;;;;;;25.00;23.07;;;1.30;99.90;;;;;;5088918;28;20457;-69
2023/03/08 02:23:48;;;;;;;25.57;23.67;;;1.30;99.90;;;;;;5098680;28;20485;-69
2023/03/08 02:26:16;;;;;;;25.37;23.47;;;1.30;99.90;;;;;;5090817;28;20473;-69
2023/03/08 02:28:44;;;;;;;25.77;23.50;;;1.30;99.90;;;;;;5094050;28;21036;-70
2023/03/08 02:31:13;;;;;;;24.93;23.20;;;1.30;99.90;;;;;;5089405;28;20502;-70
2023/03/08 02:33:40;;;;;;;25.07;23.37;;;1.30;99.90;;;;;;5086809;28;20529;-70
2023/03/08 02:36:08;;;;;;;25.10;23.50;;;1.20;99.90;;;;;;5086315;28;20474;-70
2023/03/08 02:38:35;;;;;;;27.23;25.07;;;1.30;99.90;;;;;;5097180;28;20458;-69
2023/03/08 02:41:05;;;;;;;26.37;24.60;;;1.20;99.90;;;;;;5089203;28;20458;-70
2023/03/08 02:43:32;;;;;;;26.53;24.53;;;1.20;99.90;;;;;;5093004;28;20490;-70
2023/03/08 02:45:58;;;;;;;26.80;25.00;;;1.30;99.90;;;;;;5092680;28;20469;-69
2023/03/08 02:48:26;;;;;;;26.73;24.90;;;1.30;99.90;;;;;;5085319;28;20887;-70
2023/03/08 02:50:53;;;;;;;27.03;24.80;;;1.20;99.90;;;;;;5088630;28;20492;-70
2023/03/08 02:53:20;;;;;;;26.80;24.60;;;1.10;99.90;;;;;;5084996;28;20454;-70
2023/03/08 02:55:47;;;;;;;28.67;26.37;;;1.20;99.90;;;;;;5096428;28;20492;-70
2023/03/08 02:58:16;;;;;;;30.47;27.83;;;1.20;99.90;;;;;;5091753;28;20470;-70
2023/03/08 03:00:43;;;;;;;30.53;27.30;;;1.20;99.90;;;;;;5094834;28;20466;-70
2023/03/08 03:03:11;;;;;;;27.37;25.27;;;1.20;99.90;;;;;;5093911;28;20462;-70
2023/03/08 03:05:42;;;;;;;33.13;27.30;;;1.20;99.90;;;;;;5090708;28;20532;-70
2023/03/08 03:08:10;;;;;;;31.43;25.40;;;1.20;99.90;;;;;;5087073;28;20596;-70
2023/03/08 03:10:37;;;;;;;31.30;28.30;;;1.10;99.90;;;;;;5084549;28;20672;-70
2023/03/08 03:13:05;;;;;;;28.60;25.63;;;1.10;99.90;;;;;;5088415;28;20466;-70
2023/03/08 03:15:34;;;;;;;28.77;26.77;;;1.00;99.90;;;;;;5091785;28;20461;-72
2023/03/08 03:18:00;;;;;;;29.10;26.50;;;1.00;99.90;;;;;;5097532;28;20480;-70
2023/03/08 03:20:27;;;;;;;27.97;25.43;;;1.00;99.90;;;;;;5088362;28;20469;-70
2023/03/08 03:22:55;;;;;;;28.67;26.53;;;0.90;99.90;;;;;;5089688;28;20515;-68
2023/03/08 03:25:22;;;;;;;27.50;25.40;;;1.00;99.90;;;;;;5090420;28;20564;-69
2023/03/08 03:27:48;;;;;;;27.53;25.47;;;1.10;99.90;;;;;;5093991;28;20960;-68
2023/03/08 03:30:15;;;;;;;29.17;26.27;;;1.10;99.90;;;;;;5094495;28;20476;-68
2023/03/08 03:32:43;;;;;;;28.87;26.17;;;1.00;99.90;;;;;;5090303;28;20458;-68
2023/03/08 03:35:11;;;;;;;25.60;23.50;;;1.10;99.90;;;;;;5091145;28;20473;-69
2023/03/08 03:37:37;;;;;;;27.00;24.47;;;1.10;99.90;;;;;;5088206;28;20813;-69
2023/03/08 03:40:05;;;;;;;26.40;24.40;;;1.10;99.90;;;;;;5094012;28;20540;-68
2023/03/08 03:42:32;;;;;;;27.23;24.40;;;1.00;99.90;;;;;;5089322;28;20996;-68
2023/03/08 03:44:59;;;;;;;27.40;25.30;;;1.00;99.90;;;;;;5088462;28;20496;-68
2023/03/08 03:47:26;;;;;;;40.80;24.40;;;1.00;99.90;;;;;;5091345;28;20458;-68
2023/03/08 03:49:54;;;;;;;28.80;25.80;;;1.00;99.90;;;;;;5086756;28;20478;-68
2023/03/08 03:52:21;;;;;;;26.60;24.60;;;1.00;99.90;;;;;;5086718;28;20519;-68
2023/03/08 03:54:48;;;;;;;27.07;24.53;;;1.00;99.90;;;;;;5091317;28;20495;-68
2023/03/08 03:57:14;;;;;;;26.60;24.40;;;1.00;99.90;;;;;;5089423;28;20654;-68
2023/03/08 03:59:41;;;;;;;27.13;23.93;;;1.00;99.90;;;;;;5091309;28;20830;-67
2023/03/08 04:02:08;;;;;;;27.73;25.63;;;0.90;99.90;;;;;;5087246;28;20550;-67
2023/03/08 04:04:35;;;;;;;30.73;26.70;;;1.00;99.90;;;;;;5095957;28;20458;-67
2023/03/08 04:07:03;;;;;;;27.87;25.07;;;1.00;99.90;;;;;;5091370;28;20458;-67
2023/03/08 04:09:30;;;;;;;28.90;25.83;;;1.00;99.90;;;;;;5086386;28;20538;-68
2023/03/08 04:12:01;;;;;;;28.07;25.50;;;1.00;99.90;;;;;;5090294;28;20662;-67
2023/03/08 04:14:28;;;;;;;27.63;25.00;;;1.00;99.90;;;;;;5091668;28;21029;-67
2023/03/08 04:16:54;;;;;;;29.27;23.87;;;1.10;99.90;;;;;;5096533;28;20466;-67
2023/03/08 04:19:21;;;;;;;27.53;24.93;;;1.00;99.90;;;;;;5100763;28;20987;-69
2023/03/08 04:21:48;;;;;;;28.50;25.47;;;0.90;99.90;;;;;;5091053;28;20458;-68
2023/03/08 04:24:17;;;;;;;25.83;23.83;;;1.00;99.90;;;;;;5091029;28;20462;-68
2023/03/08 04:26:44;;;;;;;24.60;22.80;;;1.00;99.90;;;;;;5095896;28;20959;-67
2023/03/08 04:29:11;;;;;;;25.50;23.67;;;1.00;99.90;;;;;;5094356;28;20458;-67
2023/03/08 04:31:37;;;;;;;28.17;25.37;;;1.00;99.90;;;;;;5093353;28;20576;-68
2023/03/08 04:34:04;;;;;;;35.67;25.27;;;1.00;99.90;;;;;;5095696;28;20960;-68
2023/03/08 04:36:32;;;;;;;28.60;25.50;;;1.00;99.90;;;;;;5091703;28;20819;-68
2023/03/08 04:38:59;;;;;;;31.10;25.07;;;0.90;99.90;;;;;;5094169;28;20462;-68
2023/03/08 04:41:27;;;;;;;27.73;25.60;;;1.00;99.90;;;;;;5099559;28;20466;-68
2023/03/08 04:43:57;;;;;;;29.53;24.50;;;1.10;99.90;;;;;;5098965;28;20515;-68
2023/03/08 04:46:25;;;;;;;53.47;25.00;;;1.10;99.90;;;;;;5101244;28;20964;-68
2023/03/08 04:48:54;;;;;;;32.40;25.07;;;1.20;99.90;;;;;;5092492;28;20465;-68
2023/03/08 04:51:22;;;;;;;66.70;25.67;;;1.20;99.90;;;;;;5091971;28;20941;-68
2023/03/08 04:53:49;;;;;;;31.83;25.67;;;1.20;99.90;;;;;;5100366;28;20465;-67
2023/03/08 04:56:16;;;;;;;36.03;26.10;;;1.20;99.90;;;;;;5097613;28;20457;-67
2023/03/08 04:58:44;;;;;;;28.30;25.47;;;1.20;99.90;;;;;;5100635;28;20469;-68
2023/03/08 05:01:14;;;;;;;30.90;26.10;;;1.20;99.90;;;;;;5087438;28;20515;-68
2023/03/08 05:03:41;;;;;;;28.97;26.43;;;1.20;99.90;;;;;;5091526;28;20961;-68
2023/03/08 05:06:09;;;;;;;30.77;27.83;;;1.20;99.90;;;;;;5091904;28;20458;-68
2023/03/08 05:08:36;;;;;;;30.90;28.30;;;1.20;99.90;;;;;;5097755;28;20462;-68
2023/03/08 05:11:03;;;;;;;30.57;27.73;;;1.20;99.90;;;;;;5093662;28;20489;-68
2023/03/08 05:13:32;;;;;;;31.80;28.77;;;1.20;99.90;;;;;;5090387;28;20581;-67
2023/03/08 05:16:01;;;;;;;30.07;27.30;;;1.20;99.90;;;;;;5094600;28;20519;-67
2023/03/08 05:18:28;;;;;;;31.37;28.17;;;1.20;99.90;;;;;;5095192;28;20876;-67
2023/03/08 05:20:56;;;;;;;30.90;27.90;;;1.20;99.90;;;;;;5095277;28;20466;-67
2023/03/08 05:23:24;;;;;;;30.73;27.97;;;1.30;99.90;;;;;;5091358;28;20469;-68
2023/03/08 05:25:54;;;;;;;31.20;28.73;;;1.20;99.90;;;;;;5092187;28;20887;-68
2023/03/08 05:28:22;;;;;;;32.10;29.10;;;1.20;99.90;;;;;;5088309;28;20465;-68
2023/03/08 05:30:49;;;;;;;30.83;28.00;;;1.20;99.90;;;;;;5087720;28;20478;-68
2023/03/08 05:33:18;;;;;;;31.60;29.00;;;1.20;99.90;;;;;;5087247;28;20831;-67
2023/03/08 05:35:53;;;;;;;31.70;28.90;;;1.20;99.90;;;;;;5089673;28;20961;-67
2023/03/08 05:38:20;;;;;;;32.23;28.93;;;1.20;99.90;;;;;;5088194;28;20659;-67
2023/03/08 05:40:47;;;;;;;29.80;27.20;;;1.20;99.90;;;;;;5088721;28;20470;-67
2023/03/08 05:43:13;;;;;;;29.93;27.33;;;1.10;99.90;;;;;;5090909;28;20492;-67
2023/03/08 05:45:40;;;;;;;28.70;26.60;;;1.10;99.90;;;;;;5088445;28;20519;-68
2023/03/08 05:48:07;;;;;;;29.30;26.80;;;1.10;99.90;;;;;;5097604;28;20481;-68
2023/03/08 05:50:37;;;;;;;29.33;27.10;;;1.20;99.90;;;;;;5088764;28;20551;-67
2023/03/08 05:53:04;;;;;;;29.93;27.57;;;1.10;99.90;;;;;;5091516;28;20736;-67
2023/03/08 05:55:31;;;;;;;27.97;26.07;;;1.10;99.90;;;;;;5088338;28;20458;-69
2023/03/08 05:57:58;;;;;;;28.80;26.50;;;1.10;99.90;;;;;;5088880;28;20465;-69
2023/03/08 06:00:25;;;;;;;29.13;26.30;;;1.10;99.90;;;;;;5094993;28;20469;-68
2023/03/08 06:02:52;;;;;;;28.27;25.67;;;1.10;99.90;;;;;;5097738;28;21034;-69
2023/03/08 06:05:19;;;;;;;26.90;25.10;;;1.10;99.90;;;;;;5094804;28;21359;-68
2023/03/08 06:07:47;;;;;;;28.87;26.67;;;1.20;99.90;;;;;;5087155;28;20953;-68
2023/03/08 06:10:14;;;;;;;28.97;26.43;;;1.20;99.90;;;;;;5094002;28;20469;-69
2023/03/08 06:12:41;;;;;;;28.87;25.43;;;1.10;99.90;;;;;;5100118;28;20840;-70
2023/03/08 06:15:08;;;;;;;27.10;25.30;;;1.10;99.90;;;;;;5093805;28;20849;-68
2023/03/08 06:17:35;;;;;;;28.00;26.10;;;1.10;99.90;;;;;;5090313;28;20468;-69
2023/03/08 06:20:02;;;;;;;27.93;25.33;;;1.00;99.90;;;;;;5091590;28;20486;-69
2023/03/08 06:22:28;;;;;;;26.83;24.83;;;1.00;99.90;;;;;;5097780;28;20466;-70
2023/03/08 06:24:56;;;;;;;28.20;25.23;;;1.10;99.90;;;;;;5095575;28;20948;-69
2023/03/08 06:27:23;;;;;;;26.67;24.70;;;1.10;99.90;;;;;;5101052;28;20459;-70
2023/03/08 06:29:51;;;;;;;27.37;25.37;;;1.10;99.90;;;;;;5096441;28;20457;-69
2023/03/08 06:32:19;;;;;;;28.00;25.97;;;1.00;99.90;;;;;;5090234;28;20538;-69
2023/03/08 06:34:47;;;;;;;27.97;25.83;;;1.00;99.90;;;;;;5095673;28;20519;-70
2023/03/08 06:37:15;;;;;;;26.53;24.63;;;1.00;99.90;;;;;;5087455;28;20511;-68
2023/03/08 06:39:42;;;;;;;25.93;24.13;;;1.00;99.90;;;;;;5089532;28;20474;-69
2023/03/08 06:42:10;;;;;;;28.40;25.90;;;1.10;99.90;;;;;;5091624;28;20485;-70
2023/03/08 06:44:37;;;;;;;29.70;26.80;;;1.00;99.90;;;;;;5093145;28;21021;-68
2023/03/08 06:47:04;;;;;;;27.73;25.33;;;1.10;99.90;;;;;;5088382;28;20457;-68
2023/03/08 06:49:32;;;;;;;27.63;25.53;;;1.00;99.90;;;;;;5088414;28;20531;-70
2023/03/08 06:51:59;;;;;;;26.87;24.87;;;1.00;99.90;;;;;;5089628;28;20523;-68
2023/03/08 06:54:26;;;;;;;26.67;24.70;;;1.10;99.90;;;;;;5089666;28;20461;-69
2023/03/08 06:56:52;;;;;;;26.17;24.37;;;1.00;99.90;;;;;;5096425;28;20509;-69
2023/03/08 06:59:21;;;;;;;28.47;26.30;;;1.00;99.90;;;;;;5093346;28;20455;-69
2023/03/08 07:01:48;;;;;;;26.23;24.37;;;1.00;99.90;;;;;;5094271;28;20503;-69
2023/03/08 07:04:16;;;;;;;26.37;24.20;;;1.20;99.90;;;;;;5089865;28;20856;-69
2023/03/08 07:06:43;;;;;;;26.47;24.27;;;1.20;99.90;;;;;;5087842;28;20466;-69
2023/03/08 07:09:12;;;;;;;27.70;25.57;;;1.20;99.90;;;;;;5089092;28;20588;-69
2023/03/08 07:11:38;;;;;;;31.10;24.80;;;1.20;99.90;;;;;;5094087;28;20487;-70
2023/03/08 07:14:05;;;;;;;27.57;25.20;;;1.20;99.90;;;;;;5090197;28;20529;-70
2023/03/08 07:16:34;;;;;;;28.17;25.97;;;1.20;99.90;;;;;;5089802;28;20469;-69
2023/03/08 07:19:02;;;;;;;28.30;26.00;;;1.10;99.90;;;;;;5088597;28;20741;-69
2023/03/08 07:21:28;;;;;;;28.77;26.47;;;1.10;99.90;;;;;;5090572;28;21100;-69
2023/03/08 07:23:55;;;;;;;30.13;26.90;;;1.20;99.90;;;;;;5086804;28;20625;-68
2023/03/08 07:26:22;;;;;;;30.03;27.47;;;1.10;99.90;;;;;;5092724;28;20465;-68
2023/03/08 07:28:50;;;;;;;28.63;26.33;;;1.10;99.90;;;;;;5093711;28;20468;-69
2023/03/08 07:31:17;;;;;;;30.73;26.80;;;1.10;99.90;;;;;;5090840;28;20547;-69
2023/03/08 07:33:45;;;;;;;29.37;26.93;;;1.10;99.90;;;;;;5077899;28;20458;-68
2023/03/08 07:36:12;;;;;;;29.60;25.97;;;1.00;99.90;;;;;;5085293;28;20462;-68
2023/03/08 07:38:39;;;;;;;49.33;30.47;;;0.80;99.90;;;;;;5085052;28;20515;-68
2023/03/08 07:41:06;;;;;;;64.27;40.90;;;0.80;99.90;;;;;;5085422;28;20493;-69
2023/03/08 07:43:34;;;;;;;82.60;49.00;;;0.90;99.90;;;;;;5091314;28;20498;-68
2023/03/08 07:46:02;;;;;;;43.70;36.37;;;0.90;99.90;;;;;;5086328;28;21073;-68
2023/03/08 07:48:29;;;;;;;30.00;27.30;;;0.80;99.90;;;;;;5088181;28;20519;-70
2023/03/08 07:51:01;;;;;;;25.70;23.60;;;0.90;99.90;;;;;;5084134;28;20469;-69
2023/03/08 07:53:29;;;;;;;24.33;22.50;;;0.80;99.90;;;;;;5086591;28;20465;-70
2023/03/08 07:55:57;;;;;;;25.17;23.07;;;0.90;99.90;;;;;;5092998;28;20464;-70
2023/03/08 07:58:24;;;;;;;24.37;22.20;;;0.90;99.90;;;;;;5093841;28;20456;-69
2023/03/08 08:00:51;;;;;;;25.57;23.60;;;1.00;99.90;;;;;;5090936;28;20610;-70
2023/03/08 08:03:18;;;;;;;26.83;24.80;;;0.90;99.90;;;;;;5087698;28;20577;-70
2023/03/08 08:05:44;;;;;;;27.80;23.00;;;1.00;99.90;;;;;;5086380;28;20461;-68
2023/03/08 08:08:13;;;;;;;24.43;22.20;;;1.00;99.90;;;;;;5081076;28;20496;-69
2023/03/08 08:10:40;;;;;;;26.43;23.53;;;1.00;99.90;;;;;;5091601;28;20473;-69
2023/03/08 08:13:07;;;;;;;29.53;23.77;;;0.90;99.90;;;;;;5092902;28;20492;-68
2023/03/08 08:15:33;;;;;;;23.00;21.10;;;0.90;99.90;;;;;;5091176;28;20531;-71
2023/03/08 08:18:01;;;;;;;27.30;24.10;;;1.00;99.90;;;;;;5089334;28;20469;-70
2023/03/08 08:20:28;;;;;;;25.83;23.80;;;1.00;99.90;;;;;;5097287;28;20488;-71
2023/03/08 08:22:55;;;;;;;25.73;23.40;;;1.00;99.90;;;;;;5098797;28;20453;-71
2023/03/08 08:25:23;;;;;;;25.87;23.60;;;1.00;99.90;;;;;;5097662;28;20469;-71
2023/03/08 08:27:51;;;;;;;28.33;25.20;;;1.00;99.90;;;;;;5097975;27;20453;-71
2023/03/08 08:30:18;;;;;;;32.53;24.00;;;0.90;99.90;;;;;;5095231;28;20458;-71
2023/03/08 08:32:45;;;;;;;25.53;22.97;;;1.00;99.90;;;;;;5098587;28;20497;-72
2023/03/08 08:35:12;;;;;;;31.97;23.20;;;1.00;99.90;;;;;;5095454;28;20519;-69
2023/03/08 08:37:38;;;;;;;26.83;23.07;;;1.10;99.90;;;;;;5090605;28;20832;-71
2023/03/08 08:40:09;;;;;;;24.70;21.20;;;1.00;99.90;;;;;;5094231;28;20472;-72
2023/03/08 08:42:37;;;;;;;22.40;20.10;;;1.10;99.90;;;;;;5088254;28;20493;-71
2023/03/08 08:45:05;;;;;;;25.73;21.23;;;1.00;99.90;;;;;;5090804;28;20456;-70
2023/03/08 08:47:32;;;;;;;32.47;22.23;;;1.00;99.90;;;;;;5088329;28;20484;-71
2023/03/08 08:49:59;;;;;;;26.93;21.53;;;1.10;99.90;;;;;;5086963;28;21028;-71
2023/03/08 08:52:26;;;;;;;27.37;24.43;;;1.20;99.90;;;;;;5093290;28;20518;-72
2023/03/08 08:54:53;;;;;;;24.87;22.33;;;1.30;99.90;;;;;;5090131;28;20466;-71
2023/03/08 08:57:20;;;;;;;30.70;21.90;;;1.40;99.90;;;;;;5091659;28;20573;-70
2023/03/08 08:59:48;;;;;;;31.70;24.23;;;1.20;99.90;;;;;;5093131;28;20864;-70
2023/03/08 09:02:15;;;;;;;72.83;24.23;;;1.10;99.90;;;;;;5097133;28;20514;-70
2023/03/08 09:04:41;;;;;;;33.57;24.10;;;1.10;99.90;;;;;;5090729;28;20469;-70
2023/03/08 09:07:08;;;;;;;26.13;23.50;;;1.10;99.90;;;;;;5088182;28;20474;-69
2023/03/08 09:09:35;;;;;;;35.23;23.90;;;1.20;99.90;;;;;;5089068;28;20935;-70
2023/03/08 09:12:02;;;;;;;26.60;23.80;;;1.30;99.90;;;;;;5093243;28;20478;-70
2023/03/08 09:14:29;;;;;;;29.43;23.73;;;1.30;99.90;;;;;;5094267;28;20469;-72
2023/03/08 09:16:57;;;;;;;28.50;24.60;;;1.20;99.90;;;;;;5095722;28;20821;-70
2023/03/08 09:19:23;;;;;;;26.17;23.67;;;1.10;99.90;;;;;;5088629;28;20481;-72
2023/03/08 09:21:50;;;;;;;28.57;24.87;;;1.30;99.90;;;;;;5090918;28;20469;-72
2023/03/08 09:24:17;;;;;;;27.23;24.27;;;1.30;99.90;;;;;;5093565;28;21008;-72
2023/03/08 09:26:44;;;;;;;32.23;24.60;;;1.40;99.90;;;;;;5088166;28;20991;-73
2023/03/08 09:29:11;;;;;;;25.80;23.20;;;1.40;99.90;;;;;;5095873;28;20978;-70
2023/03/08 09:31:41;;;;;;;36.43;24.00;;;1.30;99.90;;;;;;5087372;28;20477;-73
2023/03/08 09:34:14;;;;;;;35.03;24.90;;;1.50;99.90;;;;;;5090328;28;20481;-73
2023/03/08 09:36:43;;;;;;;27.53;24.83;;;1.40;99.90;;;;;;5097057;28;20468;-74
2023/03/08 09:39:12;;;;;;;28.40;25.37;;;1.40;99.90;;;;;;5085906;28;20458;-73
2023/03/08 09:41:54;;;;;;;37.00;27.90;;;1.50;99.90;;;;;;5088345;28;20473;-72
2023/03/08 09:44:44;;;;;;;52.03;27.80;;;1.40;99.90;;;;;;5090310;28;20469;-73
2023/03/08 09:47:16;;;;;;;32.27;28.47;;;1.30;99.90;;;;;;5077975;28;20558;-72
2023/03/08 09:49:49;;;;;;;28.83;25.20;;;1.30;99.90;;;;;;5094839;28;20821;-72
2023/03/08 09:52:22;;;;;;;35.77;28.43;;;1.20;99.90;;;;;;5097090;28;20504;-74
2023/03/08 09:54:51;;;;;;;28.60;25.57;;;1.40;99.90;;;;;;5089346;28;20464;-72
2023/03/08 09:57:23;;;;;;;34.80;27.53;;;1.40;99.90;;;;;;5086781;28;20972;-71
2023/03/08 09:59:54;;;;;;;33.43;25.87;;;1.50;99.90;;;;;;5086807;28;20992;-72
2023/03/08 10:02:31;;;;;;;59.60;27.77;;;1.50;99.90;;;;;;5087110;28;20458;-74
2023/03/08 10:05:06;;;;;;;32.70;25.93;;;1.40;99.90;;;;;;5095261;28;20476;-71
2023/03/08 10:07:43;;;;;;;33.33;26.13;;;1.50;99.90;;;;;;5089743;28;20515;-70
2023/03/08 10:10:22;;;;;;;32.90;26.17;;;1.70;99.90;;;;;;5089755;28;20470;-73
2023/03/08 10:13:03;;;;;;;34.20;25.83;;;1.60;99.90;;;;;;5095681;28;20480;-70
2023/03/08 10:15:32;;;;;;;32.43;27.13;;;1.60;99.90;;;;;;5089062;28;20988;-73
2023/03/08 10:18:02;;;;;;;34.93;27.53;;;1.80;99.90;;;;;;5092916;28;20464;-73
2023/03/08 10:20:34;;;;;;;38.57;27.97;;;1.70;99.90;;;;;;5094520;28;20470;-69
2023/03/08 10:23:06;;;;;;;30.57;27.27;;;1.90;99.90;;;;;;5089612;28;20461;-71
2023/03/08 10:25:34;;;;;;;40.93;28.10;;;1.70;99.90;;;;;;5092706;28;20535;-70
2023/03/08 10:28:02;;;;;;;37.27;29.20;;;1.80;99.90;;;;;;5090191;28;20467;-72
2023/03/08 10:30:34;;;;;;;56.13;29.70;;;2.00;99.90;;;;;;5088407;28;20956;-72
2023/03/08 10:33:05;;;;;;;35.73;29.20;;;2.10;99.90;;;;;;5088925;28;20503;-71
2023/03/08 10:35:36;;;;;;;31.23;25.37;;;2.20;99.90;;;;;;5094958;28;20536;-71
2023/03/08 10:38:03;;;;;;;31.10;27.43;;;2.30;99.90;;;;;;5095784;28;20956;-70
2023/03/08 10:40:30;;;;;;;34.43;26.67;;;2.50;99.90;;;;;;5090857;28;20474;-71
2023/03/08 10:43:00;;;;;;;39.47;28.10;;;2.60;99.90;;;;;;5090289;28;20488;-70
2023/03/08 10:45:29;;;;;;;40.93;29.67;;;2.50;99.90;;;;;;5085584;28;20783;-68
2023/03/08 10:47:59;;;;;;;34.27;28.27;;;2.40;99.90;;;;;;5094929;28;20461;-69
2023/03/08 10:50:28;;;;;;;39.73;29.40;;;2.60;99.90;;;;;;5091255;28;20939;-70
2023/03/08 10:53:07;;;;;;;37.10;28.90;;;2.80;99.90;;;;;;5097120;28;20481;-70
2023/03/08 10:55:43;;;;;;;34.80;27.70;;;2.90;99.90;;;;;;5085251;28;20457;-69
2023/03/08 10:58:33;;;;;;;43.93;29.90;;;3.20;99.90;;;;;;5085661;28;20450;-70
2023/03/08 11:01:03;;;;;;;40.67;31.17;;;3.60;99.90;;;;;;5090508;28;20480;-70
2023/03/08 11:03:30;;;;;;;37.77;31.27;;;3.80;99.90;;;;;;5084943;28;20472;-69
2023/03/08 11:05:59;;;;;;;38.27;31.47;;;3.70;99.90;;;;;;5089723;28;21091;-70
2023/03/08 11:08:30;;;;;;;46.30;33.13;;;4.00;99.90;;;;;;5088184;28;20454;-69
2023/03/08 11:11:08;;;;;;;42.00;33.60;;;4.00;99.90;;;;;;5087485;28;20994;-69
2023/03/08 11:13:40;;;;;;;39.67;33.90;;;4.20;99.90;;;;;;5088903;28;21189;-70
2023/03/08 11:16:50;;;;;;;40.23;34.03;;;4.40;99.90;;;;;;5089644;28;20466;-69
2023/03/08 11:19:58;;;;;;;37.73;33.10;;;4.40;99.90;;;;;;5078406;28;20483;-70
2023/03/08 11:22:49;;;;;;;36.13;30.83;;;3.90;99.90;;;;;;5009566;28;20564;-68
2023/03/08 11:25:28;;;;;;;36.90;32.80;;;3.70;99.90;;;;;;5080861;28;20457;-69
2023/03/08 11:28:31;;;;;;;42.00;31.97;;;3.70;99.90;;;;;;5096794;28;20466;-70
2023/03/08 11:31:09;;;;;;;35.03;31.33;;;3.60;99.90;;;;;;5062608;28;20461;-70
2023/03/08 11:33:54;;;;;;;34.80;31.10;;;3.50;99.90;;;;;;5095860;28;20495;-69
2023/03/08 11:36:26;;;;;;;38.07;30.90;;;3.50;99.90;;;;;;5092506;28;20559;-68
2023/03/08 11:38:58;;;;;;;41.17;33.27;;;3.40;99.90;;;;;;5088841;28;20462;-69
2023/03/08 11:41:34;;;;;;;35.30;31.50;;;3.30;99.90;;;;;;5090810;28;20530;-68
2023/03/08 11:44:25;;;;;;;38.50;34.20;;;3.10;99.90;;;;;;5092687;28;20461;-68
2023/03/08 11:47:11;;;;;;;40.20;32.67;;;3.10;99.90;;;;;;5078299;28;20462;-69
2023/03/08 11:49:54;;;;;;;41.00;33.73;;;3.40;99.90;;;;;;5086106;28;20457;-68
2023/03/08 11:52:30;;;;;;;42.23;33.10;;;3.50;99.90;;;;;;5090576;28;20501;-69
2023/03/08 11:55:19;;;;;;;43.23;35.30;;;3.60;99.90;;;;;;5091789;28;20462;-69
2023/03/08 11:57:55;;;;;;;38.77;34.70;;;3.90;99.90;;;;;;5091700;28;20832;-69
2023/03/08 12:03:13;;;;;;;38.10;33.40;;;4.20;99.90;;;;;;5087385;28;20454;-69
2023/03/08 12:05:44;;;;;;;40.30;32.80;;;4.30;99.90;;;;;;5090021;28;20457;-69
2023/03/08 12:08:16;;;;;;;38.13;33.90;;;4.20;99.90;;;;;;5092764;28;20461;-68
2023/03/08 12:10:48;;;;;;;55.03;34.10;;;4.30;99.90;;;;;;5090908;28;20843;-69
2023/03/08 12:13:20;;;;;;;40.53;33.57;;;4.20;99.90;;;;;;5088412;28;20863;-68
2023/03/08 12:15:52;;;;;;;42.27;32.83;;;4.20;99.90;;;;;;5091311;28;20861;-69
2023/03/08 12:18:24;;;;;;;38.07;34.00;;;4.30;99.90;;;;;;5088697;28;21228;-69
2023/03/08 12:20:59;;;;;;;36.30;32.37;;;4.30;99.90;;;;;;5093575;28;20461;-68
2023/03/08 12:23:30;;;;;;;37.77;33.70;;;4.40;99.90;;;;;;5091950;28;20487;-70
2023/03/08 12:26:07;;;;;;;36.27;32.50;;;4.40;99.90;;;;;;5090072;28;20458;-70
2023/03/08 12:28:40;;;;;;;38.83;32.60;;;4.70;99.90;;;;;;5086628;28;20460;-71
2023/03/08 12:31:20;;;;;;;40.53;34.67;;;4.60;99.90;;;;;;5086495;28;20458;-72
2023/03/08 12:33:47;;;;;;;40.97;33.50;;;4.70;99.90;;;;;;5099213;28;20492;-71
2023/03/08 12:36:17;;;;;;;36.80;32.90;;;4.50;99.90;;;;;;5094127;28;20469;-72
2023/03/08 12:38:47;;;;;;;38.60;34.40;;;4.70;99.90;;;;;;5091342;28;20460;-72
2023/03/08 12:41:26;;;;;;;45.43;34.77;;;4.50;99.90;;;;;;5093600;28;20460;-72
2023/03/08 12:44:03;;;;;;;38.33;33.83;;;4.30;99.90;;;;;;5091238;28;21014;-72
2023/03/08 12:46:45;;;;;;;40.87;35.40;;;4.20;99.90;;;;;;5093542;28;20711;-73
2023/03/08 12:49:20;;;;;;;39.40;35.20;;;4.30;99.90;;;;;;5095902;28;20469;-72